sensor_id;sensor_type;location;lat;lon;timestamp;pressure;altitude;pressure_sealevel;temperature;humidity
21838;BME280;11081;45.946;6.140;2023-11-18T00:00:10;96006.91;;;6.48;83.29
21838;BME280;11081;45.946;6.140;2023-11-18T00:02:40;96001.72;;;6.48;83.37
21838;BME280;11081;45.946;6.140;2023-11-18T00:05:10;95997.53;;;6.47;83.26
21838;BME280;11081;45.946;6.140;2023-11-18T00:07:37;95993.94;;;6.48;84.04
21838;BME280;11081;45.946;6.140;2023-11-18T00:10:06;95992.34;;;6.47;83.83
21838;BME280;11081;45.946;6.140;2023-11-18T00:12:35;95999.47;;;6.45;83.37
21838;BME280;11081;45.946;6.140;2023-11-18T00:15:05;95997.84;;;6.44;83.90
21838;BME280;11081;45.946;6.140;2023-11-18T00:17:35;96003.03;;;6.44;83.47
21838;BME280;11081;45.946;6.140;2023-11-18T00:20:03;96014.56;;;6.41;83.57
21838;BME280;11081;45.946;6.140;2023-11-18T00:22:36;96018.47;;;6.37;84.00
21838;BME280;11081;45.946;6.140;2023-11-18T00:25:04;96015.72;;;6.39;83.91
21838;BME280;11081;45.946;6.140;2023-11-18T00:27:34;96022.22;;;6.35;83.31
21838;BME280;11081;45.946;6.140;2023-11-18T00:30:06;96015.59;;;6.32;84.03
21838;BME280;11081;45.946;6.140;2023-11-18T00:32:34;96016.75;;;6.30;83.74
21838;BME280;11081;45.946;6.140;2023-11-18T00:35:03;96011.13;;;6.26;84.08
21838;BME280;11081;45.946;6.140;2023-11-18T00:37:31;96004.16;;;6.27;84.23
21838;BME280;11081;45.946;6.140;2023-11-18T00:40:00;95994.75;;;6.26;84.26
21838;BME280;11081;45.946;6.140;2023-11-18T00:42:27;96005.44;;;6.23;84.20
21838;BME280;11081;45.946;6.140;2023-11-18T00:44:55;96009.38;;;6.19;85.20
21838;BME280;11081;45.946;6.140;2023-11-18T00:47:25;96018.94;;;6.18;84.80
21838;BME280;11081;45.946;6.140;2023-11-18T00:49:53;96005.22;;;6.09;85.05
21838;BME280;11081;45.946;6.140;2023-11-18T00:52:21;96006.84;;;6.10;85.58
21838;BME280;11081;45.946;6.140;2023-11-18T00:54:49;96008.09;;;6.15;85.09
21838;BME280;11081;45.946;6.140;2023-11-18T00:57:17;96012.47;;;6.14;84.19
21838;BME280;11081;45.946;6.140;2023-11-18T00:59:45;96014.56;;;6.19;84.10
21838;BME280;11081;45.946;6.140;2023-11-18T01:02:13;96021.34;;;6.20;83.98
21838;BME280;11081;45.946;6.140;2023-11-18T01:04:43;96014.91;;;6.16;84.58
21838;BME280;11081;45.946;6.140;2023-11-18T01:07:12;96022.38;;;6.10;84.96
21838;BME280;11081;45.946;6.140;2023-11-18T01:09:40;96024.34;;;6.08;85.30
21838;BME280;11081;45.946;6.140;2023-11-18T01:12:08;96017.22;;;6.10;84.76
21838;BME280;11081;45.946;6.140;2023-11-18T01:14:37;96022.38;;;6.10;84.49
21838;BME280;11081;45.946;6.140;2023-11-18T01:17:06;96020.44;;;6.13;84.43
21838;BME280;11081;45.946;6.140;2023-11-18T01:19:35;96025.31;;;6.07;84.83
21838;BME280;11081;45.946;6.140;2023-11-18T01:22:05;96026.63;;;6.03;84.28
21838;BME280;11081;45.946;6.140;2023-11-18T01:24:33;96033.44;;;6.04;84.29
21838;BME280;11081;45.946;6.140;2023-11-18T01:27:01;96024.97;;;6.10;84.38
21838;BME280;11081;45.946;6.140;2023-11-18T01:29:29;96025.19;;;6.01;84.43
21838;BME280;11081;45.946;6.140;2023-11-18T01:31:57;96039.28;;;5.98;85.13
21838;BME280;11081;45.946;6.140;2023-11-18T01:34:25;96026.66;;;5.95;85.12
21838;BME280;11081;45.946;6.140;2023-11-18T01:36:54;96016.59;;;6.00;85.19
21838;BME280;11081;45.946;6.140;2023-11-18T01:39:24;96015.97;;;5.98;85.23
21838;BME280;11081;45.946;6.140;2023-11-18T01:41:55;96020.06;;;5.93;86.26
21838;BME280;11081;45.946;6.140;2023-11-18T01:44:29;96020.84;;;5.93;85.48
21838;BME280;11081;45.946;6.140;2023-11-18T01:46:57;96017.81;;;5.90;86.06
21838;BME280;11081;45.946;6.140;2023-11-18T01:49:27;96024.75;;;5.89;86.32
21838;BME280;11081;45.946;6.140;2023-11-18T01:51:55;96008.53;;;5.95;85.40
21838;BME280;11081;45.946;6.140;2023-11-18T01:54:25;96013.38;;;5.98;84.85
21838;BME280;11081;45.946;6.140;2023-11-18T01:56:53;96010.50;;;5.93;84.90
21838;BME280;11081;45.946;6.140;2023-11-18T01:59:21;96011.16;;;5.87;84.66
21838;BME280;11081;45.946;6.140;2023-11-18T02:01:50;96006.47;;;5.91;84.84
21838;BME280;11081;45.946;6.140;2023-11-18T02:04:20;96001.28;;;5.91;84.87
21838;BME280;11081;45.946;6.140;2023-11-18T02:06:49;95996.91;;;5.91;84.18
21838;BME280;11081;45.946;6.140;2023-11-18T02:09:18;95989.44;;;5.96;84.75
21838;BME280;11081;45.946;6.140;2023-11-18T02:12:02;95987.19;;;5.93;84.43
21838;BME280;11081;45.946;6.140;2023-11-18T02:14:39;96005.78;;;5.97;84.36
21838;BME280;11081;45.946;6.140;2023-11-18T02:17:09;95996.91;;;5.91;84.81
21838;BME280;11081;45.946;6.140;2023-11-18T02:19:40;96003.34;;;5.95;84.18
21838;BME280;11081;45.946;6.140;2023-11-18T02:22:08;96009.19;;;5.89;84.51
21838;BME280;11081;45.946;6.140;2023-11-18T02:24:38;96009.53;;;5.86;84.34
21838;BME280;11081;45.946;6.140;2023-11-18T02:27:09;96012.31;;;5.85;84.25
21838;BME280;11081;45.946;6.140;2023-11-18T02:29:40;96019.91;;;5.86;84.51
21838;BME280;11081;45.946;6.140;2023-11-18T02:32:15;96022.16;;;5.81;85.17
21838;BME280;11081;45.946;6.140;2023-11-18T02:34:56;96019.28;;;5.76;84.64
21838;BME280;11081;45.946;6.140;2023-11-18T02:37:26;96024.13;;;5.79;84.66
21838;BME280;11081;45.946;6.140;2023-11-18T02:40:03;96024.81;;;5.73;84.36
21838;BME280;11081;45.946;6.140;2023-11-18T02:42:36;96035.63;;;5.76;84.13
21838;BME280;11081;45.946;6.140;2023-11-18T02:45:07;96040.34;;;5.73;84.57
21838;BME280;11081;45.946;6.140;2023-11-18T02:47:39;96033.22;;;5.75;85.47
21838;BME280;11081;45.946;6.140;2023-11-18T02:50:08;96034.81;;;5.76;85.59
21838;BME280;11081;45.946;6.140;2023-11-18T02:52:37;96027.06;;;5.76;85.58
21838;BME280;11081;45.946;6.140;2023-11-18T02:55:06;96019.63;;;5.73;86.17
21838;BME280;11081;45.946;6.140;2023-11-18T02:57:36;96011.69;;;5.74;85.73
21838;BME280;11081;45.946;6.140;2023-11-18T03:00:06;96004.09;;;5.73;85.55
21838;BME280;11081;45.946;6.140;2023-11-18T03:02:39;96000.22;;;5.69;86.25
21838;BME280;11081;45.946;6.140;2023-11-18T03:05:07;96011.56;;;5.68;86.73
21838;BME280;11081;45.946;6.140;2023-11-18T03:07:38;96008.00;;;5.69;86.76
21838;BME280;11081;45.946;6.140;2023-11-18T03:10:07;96002.81;;;5.69;86.68
21838;BME280;11081;45.946;6.140;2023-11-18T03:12:48;95994.06;;;5.70;86.79
21838;BME280;11081;45.946;6.140;2023-11-18T03:15:16;95996.31;;;5.73;86.55
21838;BME280;11081;45.946;6.140;2023-11-18T03:17:44;95992.13;;;5.72;85.80
21838;BME280;11081;45.946;6.140;2023-11-18T03:20:15;95997.97;;;5.66;85.10
21838;BME280;11081;45.946;6.140;2023-11-18T03:22:44;95999.59;;;5.67;85.13
21838;BME280;11081;45.946;6.140;2023-11-18T03:25:12;95998.78;;;5.66;85.54
21838;BME280;11081;45.946;6.140;2023-11-18T03:27:41;95993.16;;;5.63;86.18
21838;BME280;11081;45.946;6.140;2023-11-18T03:30:11;95989.88;;;5.61;85.51
21838;BME280;11081;45.946;6.140;2023-11-18T03:32:39;95987.00;;;5.64;85.73
21838;BME280;11081;45.946;6.140;2023-11-18T03:35:08;95988.78;;;5.63;86.37
21838;BME280;11081;45.946;6.140;2023-11-18T03:37:36;95989.88;;;5.61;86.63
21838;BME280;11081;45.946;6.140;2023-11-18T03:40:06;95975.16;;;5.61;86.41
21838;BME280;11081;45.946;6.140;2023-11-18T03:42:34;95989.41;;;5.57;86.25
21838;BME280;11081;45.946;6.140;2023-11-18T03:45:04;95985.06;;;5.58;85.57
21838;BME280;11081;45.946;6.140;2023-11-18T03:47:33;95991.84;;;5.59;85.98
21838;BME280;11081;45.946;6.140;2023-11-18T03:50:01;95993.47;;;5.60;85.15
21838;BME280;11081;45.946;6.140;2023-11-18T03:52:29;95993.34;;;5.53;86.33
21838;BME280;11081;45.946;6.140;2023-11-18T03:54:58;95992.19;;;5.56;85.77
21838;BME280;11081;45.946;6.140;2023-11-18T03:57:25;95987.34;;;5.53;86.51
21838;BME280;11081;45.946;6.140;2023-11-18T03:59:53;95985.09;;;5.49;86.75
21838;BME280;11081;45.946;6.140;2023-11-18T04:02:22;95983.47;;;5.48;85.94
21838;BME280;11081;45.946;6.140;2023-11-18T04:04:51;95980.09;;;5.48;85.88
21838;BME280;11081;45.946;6.140;2023-11-18T04:07:19;95978.94;;;5.50;85.81
21838;BME280;11081;45.946;6.140;2023-11-18T04:09:48;95983.78;;;5.54;85.50
21838;BME280;11081;45.946;6.140;2023-11-18T04:12:16;95989.28;;;5.50;86.04
21838;BME280;11081;45.946;6.140;2023-11-18T04:14:44;95989.59;;;5.56;86.03
21838;BME280;11081;45.946;6.140;2023-11-18T04:17:11;95987.28;;;5.61;86.63
21838;BME280;11081;45.946;6.140;2023-11-18T04:19:39;95971.94;;;5.59;86.49
21838;BME280;11081;45.946;6.140;2023-11-18T04:22:09;95986.31;;;5.62;85.90
21838;BME280;11081;45.946;6.140;2023-11-18T04:24:37;95981.16;;;5.62;85.94
21838;BME280;11081;45.946;6.140;2023-11-18T04:27:05;95978.41;;;5.63;86.84
21838;BME280;11081;45.946;6.140;2023-11-18T04:29:33;95981.16;;;5.62;86.97
21838;BME280;11081;45.946;6.140;2023-11-18T04:32:03;95984.72;;;5.61;86.08
21838;BME280;11081;45.946;6.140;2023-11-18T04:34:35;95984.72;;;5.61;86.92
21838;BME280;11081;45.946;6.140;2023-11-18T04:37:03;95976.13;;;5.60;87.55
21838;BME280;11081;45.946;6.140;2023-11-18T04:39:32;95980.84;;;5.65;86.97
21838;BME280;11081;45.946;6.140;2023-11-18T04:42:00;95974.84;;;5.64;87.11
21838;BME280;11081;45.946;6.140;2023-11-18T04:44:29;95984.41;;;5.64;87.42
21838;BME280;11081;45.946;6.140;2023-11-18T04:46:57;95980.84;;;5.65;86.63
21838;BME280;11081;45.946;6.140;2023-11-18T04:49:26;95967.25;;;5.63;86.22
21838;BME280;11081;45.946;6.140;2023-11-18T04:51:54;95979.22;;;5.64;86.92
21838;BME280;11081;45.946;6.140;2023-11-18T04:54:22;95988.91;;;5.62;86.25
21838;BME280;11081;45.946;6.140;2023-11-18T04:56:52;95979.97;;;5.41;87.77
21838;BME280;11081;45.946;6.140;2023-11-18T04:59:20;95968.66;;;5.34;88.66
21838;BME280;11081;45.946;6.140;2023-11-18T05:01:47;95972.03;;;5.43;88.41
21838;BME280;11081;45.946;6.140;2023-11-18T05:04:15;95978.25;;;5.57;87.73
21838;BME280;11081;45.946;6.140;2023-11-18T05:06:43;95981.81;;;5.56;86.84
21838;BME280;11081;45.946;6.140;2023-11-18T05:09:11;95978.94;;;5.50;86.56
21838;BME280;11081;45.946;6.140;2023-11-18T05:11:39;95984.47;;;5.47;85.68
21838;BME280;11081;45.946;6.140;2023-11-18T05:14:08;95982.84;;;5.46;85.53
21838;BME280;11081;45.946;6.140;2023-11-18T05:16:37;95985.72;;;5.51;84.45
21838;BME280;11081;45.946;6.140;2023-11-18T05:19:05;95984.47;;;5.47;84.98
21838;BME280;11081;45.946;6.140;2023-11-18T05:21:34;95982.69;;;5.48;85.34
21838;BME280;11081;45.946;6.140;2023-11-18T05:24:02;95980.22;;;5.55;86.29
21838;BME280;11081;45.946;6.140;2023-11-18T05:26:30;95983.09;;;5.60;86.47
21838;BME280;11081;45.946;6.140;2023-11-18T05:29:01;95982.44;;;5.66;87.23
21838;BME280;11081;45.946;6.140;2023-11-18T05:31:30;95987.28;;;5.69;87.16
21838;BME280;11081;45.946;6.140;2023-11-18T05:33:59;95979.81;;;5.74;87.27
21838;BME280;11081;45.946;6.140;2023-11-18T05:36:28;95984.63;;;5.77;86.98
21838;BME280;11081;45.946;6.140;2023-11-18T05:39:04;95979.13;;;5.80;87.42
21838;BME280;11081;45.946;6.140;2023-11-18T05:41:33;95982.03;;;5.85;87.36
21838;BME280;11081;45.946;6.140;2023-11-18T05:44:02;95982.50;;;5.89;87.54
21838;BME280;11081;45.946;6.140;2023-11-18T05:46:31;95975.38;;;5.91;87.98
21838;BME280;11081;45.946;6.140;2023-11-18T05:49:02;95979.41;;;5.93;87.79
21838;BME280;11081;45.946;6.140;2023-11-18T05:51:33;95977.00;;;5.92;88.35
21838;BME280;11081;45.946;6.140;2023-11-18T05:54:01;95966.81;;;5.90;88.56
21838;BME280;11081;45.946;6.140;2023-11-18T05:56:29;95964.22;;;5.90;89.33
21838;BME280;11081;45.946;6.140;2023-11-18T05:58:58;95970.66;;;5.94;88.49
21838;BME280;11081;45.946;6.140;2023-11-18T06:01:30;95967.09;;;5.95;89.33
21838;BME280;11081;45.946;6.140;2023-11-18T06:03:58;95959.59;;;6.00;89.82
21838;BME280;11081;45.946;6.140;2023-11-18T06:06:27;95954.41;;;6.00;90.09
21838;BME280;11081;45.946;6.140;2023-11-18T06:08:55;95960.91;;;6.04;89.23
21838;BME280;11081;45.946;6.140;2023-11-18T06:11:25;95954.72;;;6.05;87.87
21838;BME280;11081;45.946;6.140;2023-11-18T06:13:55;95954.06;;;6.03;86.54
21838;BME280;11081;45.946;6.140;2023-11-18T06:16:24;95952.47;;;6.02;86.37
21838;BME280;11081;45.946;6.140;2023-11-18T06:18:55;95948.31;;;5.93;87.64
21838;BME280;11081;45.946;6.140;2023-11-18T06:21:26;95945.75;;;5.85;87.26
21838;BME280;11081;45.946;6.140;2023-11-18T06:23:57;95940.25;;;5.88;85.32
21838;BME280;11081;45.946;6.140;2023-11-18T06:26:25;95937.38;;;5.83;84.95
21838;BME280;11081;45.946;6.140;2023-11-18T06:28:55;95944.81;;;5.78;85.60
21838;BME280;11081;45.946;6.140;2023-11-18T06:31:23;95943.19;;;5.77;85.80
21838;BME280;11081;45.946;6.140;2023-11-18T06:33:51;95941.25;;;5.79;86.13
21838;BME280;11081;45.946;6.140;2023-11-18T06:36:21;95947.56;;;5.76;86.05
21838;BME280;11081;45.946;6.140;2023-11-18T06:38:52;95945.16;;;5.75;86.10
21838;BME280;11081;45.946;6.140;2023-11-18T06:41:21;95943.91;;;5.71;87.49
21838;BME280;11081;45.946;6.140;2023-11-18T06:43:52;95949.41;;;5.68;87.42
21838;BME280;11081;45.946;6.140;2023-11-18T06:46:28;95956.22;;;5.69;86.73
21838;BME280;11081;45.946;6.140;2023-11-18T06:48:58;95954.59;;;5.68;86.90
21838;BME280;11081;45.946;6.140;2023-11-18T06:51:32;95954.59;;;5.68;86.68
21838;BME280;11081;45.946;6.140;2023-11-18T06:54:03;95954.59;;;5.68;86.55
21838;BME280;11081;45.946;6.140;2023-11-18T06:56:36;95951.03;;;5.69;86.49
21838;BME280;11081;45.946;6.140;2023-11-18T06:59:05;95956.94;;;5.86;86.39
21838;BME280;11081;45.946;6.140;2023-11-18T07:01:34;95962.38;;;5.99;84.99
21838;BME280;11081;45.946;6.140;2023-11-18T07:04:03;95967.72;;;5.97;84.66
21838;BME280;11081;45.946;6.140;2023-11-18T07:06:36;95971.28;;;5.96;85.85
21838;BME280;11081;45.946;6.140;2023-11-18T07:09:07;95976.09;;;6.07;84.58
21838;BME280;11081;45.946;6.140;2023-11-18T07:11:39;95979.31;;;6.09;85.18
21838;BME280;11081;45.946;6.140;2023-11-18T07:14:08;95987.72;;;6.11;85.34
21838;BME280;11081;45.946;6.140;2023-11-18T07:16:37;95991.88;;;6.21;85.47
21838;BME280;11081;45.946;6.140;2023-11-18T07:19:06;95991.50;;;6.24;85.54
21838;BME280;11081;45.946;6.140;2023-11-18T07:21:34;95986.00;;;6.27;85.79
21838;BME280;11081;45.946;6.140;2023-11-18T07:24:04;95968.59;;;6.35;84.81
21838;BME280;11081;45.946;6.140;2023-11-18T07:26:32;95969.06;;;6.39;85.48
21838;BME280;11081;45.946;6.140;2023-11-18T07:29:00;95967.09;;;6.41;85.10
21838;BME280;11081;45.946;6.140;2023-11-18T07:31:27;95977.09;;;6.44;84.87
21838;BME280;11081;45.946;6.140;2023-11-18T07:33:55;95979.44;;;6.39;83.96
21838;BME280;11081;45.946;6.140;2023-11-18T07:36:23;95989.00;;;6.38;84.01
21838;BME280;11081;45.946;6.140;2023-11-18T07:38:52;95984.59;;;6.39;84.03
21838;BME280;11081;45.946;6.140;2023-11-18T07:41:23;95983.28;;;6.43;83.64
21838;BME280;11081;45.946;6.140;2023-11-18T07:43:58;95982.97;;;6.46;83.23
21838;BME280;11081;45.946;6.140;2023-11-18T07:46:27;95995.56;;;6.49;83.70
21838;BME280;11081;45.946;6.140;2023-11-18T07:48:58;95990.03;;;6.52;84.18
21838;BME280;11081;45.946;6.140;2023-11-18T07:51:28;95986.91;;;6.57;84.26
21838;BME280;11081;45.946;6.140;2023-11-18T07:53:56;95993.81;;;6.64;84.83
21838;BME280;11081;45.946;6.140;2023-11-18T07:56:26;95988.28;;;6.67;84.17
21838;BME280;11081;45.946;6.140;2023-11-18T07:58:55;96001.88;;;6.69;85.82
21838;BME280;11081;45.946;6.140;2023-11-18T08:01:23;96010.34;;;6.63;85.86
21838;BME280;11081;45.946;6.140;2023-11-18T08:03:52;96017.81;;;6.66;86.56
21838;BME280;11081;45.946;6.140;2023-11-18T08:06:21;96026.22;;;6.68;87.25
21838;BME280;11081;45.946;6.140;2023-11-18T08:08:51;96033.81;;;6.70;86.47
21838;BME280;11081;45.946;6.140;2023-11-18T08:11:20;96033.84;;;6.85;85.78
21838;BME280;11081;45.946;6.140;2023-11-18T08:13:49;96030.84;;;6.96;84.90
21838;BME280;11081;45.946;6.140;2023-11-18T08:16:18;96022.78;;;6.91;85.14
21838;BME280;11081;45.946;6.140;2023-11-18T08:18:46;96015.81;;;6.91;85.82
21838;BME280;11081;45.946;6.140;2023-11-18T08:21:14;96004.25;;;6.94;85.33
21838;BME280;11081;45.946;6.140;2023-11-18T08:23:42;96010.88;;;6.96;84.60
21838;BME280;11081;45.946;6.140;2023-11-18T08:26:11;96002.28;;;6.96;83.77
21838;BME280;11081;45.946;6.140;2023-11-18T08:28:39;95991.56;;;6.99;83.75
21838;BME280;11081;45.946;6.140;2023-11-18T08:31:09;95994.16;;;6.99;84.53
21838;BME280;11081;45.946;6.140;2023-11-18T08:33:37;95999.97;;;7.01;84.86
21838;BME280;11081;45.946;6.140;2023-11-18T08:36:05;96003.00;;;6.90;86.42
21838;BME280;11081;45.946;6.140;2023-11-18T08:38:34;95996.00;;;6.76;86.88
21838;BME280;11081;45.946;6.140;2023-11-18T08:41:02;95991.63;;;6.53;87.79
21838;BME280;11081;45.946;6.140;2023-11-18T08:43:32;95995.22;;;6.52;89.02
21838;BME280;11081;45.946;6.140;2023-11-18T08:46:00;95992.66;;;6.67;89.11
21838;BME280;11081;45.946;6.140;2023-11-18T08:48:29;95983.75;;;6.84;88.81
21838;BME280;11081;45.946;6.140;2023-11-18T08:51:00;95995.34;;;7.11;87.29
21838;BME280;11081;45.946;6.140;2023-11-18T08:53:29;95997.56;;;7.14;86.34
21838;BME280;11081;45.946;6.140;2023-11-18T08:56:02;96005.00;;;7.17;86.66
21838;BME280;11081;45.946;6.140;2023-11-18T08:58:32;95997.13;;;7.25;86.07
21838;BME280;11081;45.946;6.140;2023-11-18T09:01:01;95987.28;;;7.36;85.46
21838;BME280;11081;45.946;6.140;2023-11-18T09:03:34;95992.47;;;7.36;85.46
21838;BME280;11081;45.946;6.140;2023-11-18T09:06:05;95988.00;;;7.29;86.06
21838;BME280;11081;45.946;6.140;2023-11-18T09:08:46;95995.16;;;7.27;86.08
21838;BME280;11081;45.946;6.140;2023-11-18T09:11:20;95992.56;;;7.27;86.12
21838;BME280;11081;45.946;6.140;2023-11-18T09:13:50;96003.22;;;7.32;85.81
21838;BME280;11081;45.946;6.140;2023-11-18T09:16:20;96000.44;;;7.34;86.07
21838;BME280;11081;45.946;6.140;2023-11-18T09:18:51;96003.75;;;7.43;85.27
21838;BME280;11081;45.946;6.140;2023-11-18T09:21:19;96000.16;;;7.44;84.15
21838;BME280;11081;45.946;6.140;2023-11-18T09:23:51;96004.66;;;7.50;84.13
21838;BME280;11081;45.946;6.140;2023-11-18T09:26:19;95993.91;;;7.53;82.42
21838;BME280;11081;45.946;6.140;2023-11-18T09:28:48;95993.19;;;7.59;81.74
21838;BME280;11081;45.946;6.140;2023-11-18T09:31:17;95996.66;;;7.66;81.04
21838;BME280;11081;45.946;6.140;2023-11-18T09:33:45;95982.97;;;7.72;81.11
21838;BME280;11081;45.946;6.140;2023-11-18T09:36:20;95991.09;;;7.84;80.30
21838;BME280;11081;45.946;6.140;2023-11-18T09:38:49;95998.06;;;7.83;79.80
21838;BME280;11081;45.946;6.140;2023-11-18T09:41:17;95991.25;;;7.82;79.86
21838;BME280;11081;45.946;6.140;2023-11-18T09:43:46;95998.69;;;7.85;79.14
21838;BME280;11081;45.946;6.140;2023-11-18T09:46:22;95979.69;;;7.85;78.12
21838;BME280;11081;45.946;6.140;2023-11-18T09:48:52;95984.72;;;7.86;78.84
21838;BME280;11081;45.946;6.140;2023-11-18T09:51:28;95989.03;;;7.79;78.42
21838;BME280;11081;45.946;6.140;2023-11-18T09:53:59;95994.97;;;7.73;78.58
21838;BME280;11081;45.946;6.140;2023-11-18T09:56:31;95993.78;;;7.76;78.24
21838;BME280;11081;45.946;6.140;2023-11-18T09:59:10;96006.25;;;7.80;78.80
21838;BME280;11081;45.946;6.140;2023-11-18T10:01:43;95999.06;;;7.82;78.55
21838;BME280;11081;45.946;6.140;2023-11-18T10:04:14;95988.16;;;7.72;79.33
21838;BME280;11081;45.946;6.140;2023-11-18T10:06:46;95985.44;;;7.80;79.47
21838;BME280;11081;45.946;6.140;2023-11-18T10:09:16;95978.72;;;7.86;80.14
21838;BME280;11081;45.946;6.140;2023-11-18T10:11:52;95972.72;;;7.85;80.20
21838;BME280;11081;45.946;6.140;2023-11-18T10:14:27;95961.69;;;7.83;80.89
21838;BME280;11081;45.946;6.140;2023-11-18T10:16:56;95968.25;;;7.79;80.44
21838;BME280;11081;45.946;6.140;2023-11-18T10:19:24;95971.84;;;7.78;81.01
21838;BME280;11081;45.946;6.140;2023-11-18T10:21:54;95964.41;;;7.75;79.95
21838;BME280;11081;45.946;6.140;2023-11-18T10:24:23;95966.22;;;7.75;81.28
21838;BME280;11081;45.946;6.140;2023-11-18T10:26:55;95957.25;;;7.77;80.75
21838;BME280;11081;45.946;6.140;2023-11-18T10:29:24;95971.47;;;7.81;80.56
21838;BME280;11081;45.946;6.140;2023-11-18T10:32:05;95979.00;;;7.76;79.96
21838;BME280;11081;45.946;6.140;2023-11-18T10:34:36;95987.00;;;7.60;80.46
21838;BME280;11081;45.946;6.140;2023-11-18T10:37:06;95988.91;;;7.37;82.74
21838;BME280;11081;45.946;6.140;2023-11-18T10:39:37;95995.16;;;7.27;83.79
21838;BME280;11081;45.946;6.140;2023-11-18T10:42:05;95997.13;;;7.25;84.39
21838;BME280;11081;45.946;6.140;2023-11-18T10:44:34;96000.16;;;7.14;84.88
21838;BME280;11081;45.946;6.140;2023-11-18T10:47:03;95995.34;;;7.11;84.96
21838;BME280;11081;45.946;6.140;2023-11-18T10:49:31;95986.91;;;7.24;83.15
21838;BME280;11081;45.946;6.140;2023-11-18T10:52:06;95990.25;;;7.32;82.44
21838;BME280;11081;45.946;6.140;2023-11-18T10:54:35;95997.31;;;7.39;81.87
21838;BME280;11081;45.946;6.140;2023-11-18T10:57:04;95993.00;;;7.46;80.61
21838;BME280;11081;45.946;6.140;2023-11-18T10:59:35;95982.19;;;7.57;80.96
21838;BME280;11081;45.946;6.140;2023-11-18T11:02:18;95971.94;;;7.70;80.57
21838;BME280;11081;45.946;6.140;2023-11-18T11:04:48;95970.28;;;7.84;80.40
21838;BME280;11081;45.946;6.140;2023-11-18T11:07:19;95971.25;;;7.98;79.83
21838;BME280;11081;45.946;6.140;2023-11-18T11:09:47;95955.28;;;8.01;80.21
21838;BME280;11081;45.946;6.140;2023-11-18T11:12:16;95970.13;;;8.07;80.35
21838;BME280;11081;45.946;6.140;2023-11-18T11:14:52;95986.09;;;8.04;81.73
21838;BME280;11081;45.946;6.140;2023-11-18T11:17:22;95982.88;;;8.02;82.33
21838;BME280;11081;45.946;6.140;2023-11-18T11:20:02;95982.28;;;8.00;82.20
21838;BME280;11081;45.946;6.140;2023-11-18T11:22:56;95977.81;;;7.93;82.55
21838;BME280;11081;45.946;6.140;2023-11-18T11:25:30;95960.78;;;7.91;81.57
21838;BME280;11081;45.946;6.140;2023-11-18T11:28:08;95962.84;;;7.95;82.25
21838;BME280;11081;45.946;6.140;2023-11-18T11:30:43;95975.56;;;7.90;81.61
21838;BME280;11081;45.946;6.140;2023-11-18T11:33:22;95979.25;;;7.81;80.04
21838;BME280;11081;45.946;6.140;2023-11-18T11:35:55;95973.50;;;7.86;80.80
21838;BME280;11081;45.946;6.140;2023-11-18T11:38:26;95974.75;;;7.90;80.65
21838;BME280;11081;45.946;6.140;2023-11-18T11:40:55;95976.72;;;7.88;79.81
21838;BME280;11081;45.946;6.140;2023-11-18T11:43:27;95972.00;;;7.91;80.17
21838;BME280;11081;45.946;6.140;2023-11-18T11:45:55;95961.72;;;8.05;80.79
21838;BME280;11081;45.946;6.140;2023-11-18T11:48:24;95945.03;;;8.14;81.03
21838;BME280;11081;45.946;6.140;2023-11-18T11:51:11;95933.38;;;8.10;81.89
21838;BME280;11081;45.946;6.140;2023-11-18T11:53:54;95934.97;;;8.11;82.48
21838;BME280;11081;45.946;6.140;2023-11-18T11:56:38;95933.75;;;8.07;83.09
21838;BME280;11081;45.946;6.140;2023-11-18T11:59:07;95935.34;;;8.08;82.82
21838;BME280;11081;45.946;6.140;2023-11-18T12:01:39;95942.16;;;8.09;82.62
21838;BME280;11081;45.946;6.140;2023-11-18T12:04:15;95955.50;;;7.84;81.86
21838;BME280;11081;45.946;6.140;2023-11-18T12:06:48;95960.03;;;7.61;82.39
21838;BME280;11081;45.946;6.140;2023-11-18T12:09:31;95959.44;;;7.44;83.17
21838;BME280;11081;45.946;6.140;2023-11-18T12:12:05;95963.13;;;7.50;84.45
21838;BME280;11081;45.946;6.140;2023-11-18T12:14:52;95966.34;;;7.52;83.76
21838;BME280;11081;45.946;6.140;2023-11-18T12:17:23;95965.41;;;7.59;83.79
21838;BME280;11081;45.946;6.140;2023-11-18T12:19:55;95974.38;;;7.57;84.69
21838;BME280;11081;45.946;6.140;2023-11-18T12:22:26;95976.63;;;7.60;85.15
21838;BME280;11081;45.946;6.140;2023-11-18T12:25:31;95976.00;;;7.58;85.53
21838;BME280;11081;45.946;6.140;2023-11-18T12:28:07;95961.53;;;7.70;85.73
21838;BME280;11081;45.946;6.140;2023-11-18T12:30:38;95960.72;;;7.84;85.87
21838;BME280;11081;45.946;6.140;2023-11-18T12:33:10;95968.03;;;7.95;85.50
21838;BME280;11081;45.946;6.140;2023-11-18T12:39:10;95968.91;;;8.03;85.77
21838;BME280;11081;45.946;6.140;2023-11-18T12:41:48;95944.22;;;8.13;85.64
21838;BME280;11081;45.946;6.140;2023-11-18T12:44:29;95921.88;;;8.19;85.00
21838;BME280;11081;45.946;6.140;2023-11-18T12:47:00;95921.50;;;8.22;85.58
21838;BME280;11081;45.946;6.140;2023-11-18T12:49:38;95906.28;;;8.19;85.83
21838;BME280;11081;45.946;6.140;2023-11-18T12:52:08;95911.84;;;8.16;85.92
21838;BME280;11081;45.946;6.140;2023-11-18T12:54:37;95914.19;;;8.11;84.22
21838;BME280;11081;45.946;6.140;2023-11-18T12:57:11;95916.53;;;8.06;83.64
21838;BME280;11081;45.946;6.140;2023-11-18T12:59:41;95920.13;;;8.05;83.70
21838;BME280;11081;45.946;6.140;2023-11-18T13:02:10;95931.34;;;8.05;83.91
21838;BME280;11081;45.946;6.140;2023-11-18T13:04:40;95940.56;;;8.08;84.27
21838;BME280;11081;45.946;6.140;2023-11-18T13:07:08;95958.34;;;7.89;84.84
21838;BME280;11081;45.946;6.140;2023-11-18T13:09:37;95949.44;;;7.77;85.28
21838;BME280;11081;45.946;6.140;2023-11-18T13:12:07;95931.13;;;7.85;85.24
21838;BME280;11081;45.946;6.140;2023-11-18T13:14:38;95941.16;;;7.88;85.22
21838;BME280;11081;45.946;6.140;2023-11-18T13:17:09;95940.34;;;7.88;83.21
21838;BME280;11081;45.946;6.140;2023-11-18T13:19:38;95939.25;;;7.97;84.02
21838;BME280;11081;45.946;6.140;2023-11-18T13:22:08;95934.97;;;8.11;84.23
21838;BME280;11081;45.946;6.140;2023-11-18T13:24:37;95949.84;;;8.17;85.59
21838;BME280;11081;45.946;6.140;2023-11-18T13:27:08;95937.09;;;8.22;85.78
21838;BME280;11081;45.946;6.140;2023-11-18T13:29:38;95931.34;;;8.26;85.41